createdAt,value
2023-03-29T00:00:49.623Z,97275.53
2023-03-29T00:03:16.734Z,97281.28
2023-03-29T00:05:44.740Z,97277.03
2023-03-29T00:08:14.682Z,97279.56
2023-03-29T00:10:42.361Z,97274.56
2023-03-29T00:13:08.735Z,97269.59
2023-03-29T00:15:35.569Z,97256.56
2023-03-29T00:18:02.101Z,97259.13
2023-03-29T00:20:28.953Z,97267.25
2023-03-29T00:22:55.703Z,97262.31
2023-03-29T00:25:22.191Z,97265.34
2023-03-29T00:27:48.706Z,97268.03
2023-03-29T00:30:15.931Z,97255.22
2023-03-29T00:32:42.828Z,97262.59
2023-03-29T00:35:09.796Z,97258.41
2023-03-29T00:37:36.778Z,97254.72
2023-03-29T00:40:09.535Z,97258.34
2023-03-29T00:42:36.489Z,97262.03
2023-03-29T00:45:11.898Z,97256.41
2023-03-29T00:47:43.639Z,97256.91
2023-03-29T00:50:22.359Z,97258.50
2023-03-29T00:52:57.250Z,97260.28
2023-03-29T00:55:27.681Z,97260.25
2023-03-29T00:57:56.349Z,97260.28
2023-03-29T01:00:29.730Z,97263.56
2023-03-29T01:03:01.155Z,97261.38
2023-03-29T01:05:37.647Z,97267.16
2023-03-29T01:08:17.981Z,97271.34
2023-03-29T01:11:27.335Z,97263.38
2023-03-29T01:14:04.691Z,97257.19
2023-03-29T01:16:35.340Z,97263.25
2023-03-29T01:19:02.358Z,97253.00
2023-03-29T01:21:49.283Z,97251.06
2023-03-29T01:24:22.060Z,97238.59
2023-03-29T01:27:06.475Z,97234.03
2023-03-29T01:29:40.516Z,97231.22
2023-03-29T01:32:27.591Z,97225.22
2023-03-29T01:35:10.095Z,97228.69
2023-03-29T01:37:43.723Z,97219.47
2023-03-29T01:40:10.565Z,97199.97
2023-03-29T01:42:54.416Z,97196.38
2023-03-29T01:45:43.777Z,97194.00
2023-03-29T01:48:39.333Z,97184.97
2023-03-29T01:51:11.336Z,97188.38
2023-03-29T01:53:44.127Z,97184.38
2023-03-29T01:56:14.926Z,97186.03
2023-03-29T01:58:45.799Z,97184.38
2023-03-29T02:01:17.669Z,97171.59
2023-03-29T02:03:49.698Z,97173.41
2023-03-29T02:06:23.833Z,97174.78
2023-03-29T02:08:52.972Z,97175.88
2023-03-29T02:11:22.052Z,97162.16
2023-03-29T02:13:48.574Z,97158.69
2023-03-29T02:16:15.547Z,97167.56
2023-03-29T02:18:46.440Z,97153.13
2023-03-29T02:21:21.217Z,97149.03
2023-03-29T02:23:49.894Z,97147.00
2023-03-29T02:26:17.691Z,97140.16
2023-03-29T02:28:44.211Z,97141.88
2023-03-29T02:31:20.211Z,97150.47
2023-03-29T02:33:57.161Z,97147.72
2023-03-29T02:36:30.744Z,97148.59
2023-03-29T02:39:00.688Z,97132.44
2023-03-29T02:41:28.551Z,97136.63
2023-03-29T02:43:57.836Z,97141.09
2023-03-29T02:46:24.839Z,97127.47
2023-03-29T02:48:54.325Z,97132.44
2023-03-29T02:51:25.455Z,97138.22
2023-03-29T02:54:06.521Z,97137.94
2023-03-29T02:56:48.148Z,97133.63
2023-03-29T02:59:17.318Z,97127.34
2023-03-29T03:01:43.744Z,97133.16
2023-03-29T03:04:10.918Z,97131.41
2023-03-29T03:06:38.575Z,97130.47
2023-03-29T03:09:05.933Z,97124.63
2023-03-29T03:11:33.301Z,97120.31
2023-03-29T03:13:59.956Z,97115.19
2023-03-29T03:16:27.136Z,97122.41
2023-03-29T03:18:54.804Z,97124.72
2023-03-29T03:21:22.208Z,97133.16
2023-03-29T03:23:49.374Z,97119.97
2023-03-29T03:26:17.976Z,97132.75
2023-03-29T03:28:45.767Z,97127.69
2023-03-29T03:31:15.088Z,97127.81
2023-03-29T03:33:41.686Z,97117.66
2023-03-29T03:36:10.196Z,97110.09
2023-03-29T03:38:38.455Z,97109.66
2023-03-29T03:41:06.808Z,97096.06
2023-03-29T03:43:33.926Z,97089.31
2023-03-29T03:46:00.450Z,97092.97
2023-03-29T03:48:27.273Z,97093.53
2023-03-29T03:50:56.381Z,97095.31
2023-03-29T03:53:23.719Z,97096.06
2023-03-29T03:55:52.501Z,97102.69
2023-03-29T03:58:19.582Z,97101.59
2023-03-29T04:00:50.214Z,97089.50
2023-03-29T04:03:17.778Z,97091.06
2023-03-29T04:05:45.569Z,97086.59
2023-03-29T04:08:13.101Z,97087.63
2023-03-29T04:10:39.619Z,97096.06
2023-03-29T04:13:07.026Z,97098.72
2023-03-29T04:15:38.403Z,97093.53
2023-03-29T04:18:06.322Z,97091.16
2023-03-29T04:20:33.009Z,97089.28
2023-03-29T04:22:59.409Z,97089.50
2023-03-29T04:25:25.974Z,97088.63
2023-03-29T04:27:53.093Z,97086.19
2023-03-29T04:30:19.549Z,97081.13
2023-03-29T04:32:46.190Z,97067.22
2023-03-29T04:35:12.835Z,97064.84
2023-03-29T04:37:42.350Z,97078.63
2023-03-29T04:40:09.692Z,97076.31
2023-03-29T04:42:37.624Z,97066.91
2023-03-29T04:45:07.102Z,97063.47
2023-03-29T04:47:36.294Z,97059.16
2023-03-29T04:50:03.420Z,97057.50
2023-03-29T04:52:33.002Z,97067.75
2023-03-29T04:55:04.208Z,97066.00
2023-03-29T04:57:30.952Z,97062.63
2023-03-29T04:59:57.724Z,97070.25
2023-03-29T05:02:24.170Z,97063.59
2023-03-29T05:04:51.146Z,97066.09
2023-03-29T05:07:18.237Z,97066.00
2023-03-29T05:09:45.678Z,97070.19
2023-03-29T05:12:12.126Z,97060.50
2023-03-29T05:14:38.681Z,97062.25
2023-03-29T05:17:06.370Z,97061.53
2023-03-29T05:19:33.524Z,97061.66
2023-03-29T05:22:00.669Z,97059.91
2023-03-29T05:24:27.081Z,97054.28
2023-03-29T05:26:53.480Z,97052.63
2023-03-29T05:29:20.245Z,97051.84
2023-03-29T05:31:47.149Z,97057.84
2023-03-29T05:34:13.656Z,97043.41
2023-03-29T05:36:40.118Z,97052.63
2023-03-29T05:39:07.127Z,97052.50
2023-03-29T05:41:34.407Z,97040.56
2023-03-29T05:44:00.958Z,97038.63
2023-03-29T05:46:27.766Z,97036.16
2023-03-29T05:48:54.744Z,97035.28
2023-03-29T05:51:24.579Z,97047.31
2023-03-29T05:53:52.075Z,97034.66
2023-03-29T05:56:19.202Z,97044.19
2023-03-29T05:58:49.433Z,97044.28
2023-03-29T06:01:17.918Z,97038.28
2023-03-29T06:03:46.146Z,97034.34
2023-03-29T06:06:16.120Z,97040.50
2023-03-29T06:08:43.435Z,97037.47
2023-03-29T06:11:11.213Z,97027.38
2023-03-29T06:13:38.901Z,97028.50
2023-03-29T06:16:06.571Z,97028.63
2023-03-29T06:18:33.505Z,97030.53
2023-03-29T06:21:01.971Z,97019.63
2023-03-29T06:23:29.352Z,97020.19
2023-03-29T06:25:56.386Z,97011.72
2023-03-29T06:28:24.059Z,97016.00
2023-03-29T06:30:50.524Z,97028.59
2023-03-29T06:33:17.217Z,97023.75
2023-03-29T06:35:49.344Z,97026.25
2023-03-29T06:38:16.604Z,97027.91
2023-03-29T06:40:44.560Z,97031.50
2023-03-29T06:43:10.983Z,97041.94
2023-03-29T06:45:38.621Z,97033.91
2023-03-29T06:48:08.005Z,97022.41
2023-03-29T06:50:34.995Z,97035.91
2023-03-29T06:53:02.165Z,97041.06
2023-03-29T06:55:28.785Z,97037.69
2023-03-29T06:57:55.400Z,97037.50
2023-03-29T07:00:28.402Z,97031.66
2023-03-29T07:02:57.868Z,97030.06
2023-03-29T07:05:27.228Z,97050.44
2023-03-29T07:08:00.254Z,97040.34
2023-03-29T07:10:32.255Z,97029.66
2023-03-29T07:13:03.046Z,97034.16
2023-03-29T07:15:29.483Z,97032.69
2023-03-29T07:17:57.320Z,97038.47
2023-03-29T07:20:25.065Z,97035.53
2023-03-29T07:22:51.790Z,97042.38
2023-03-29T07:25:19.345Z,97043.84
2023-03-29T07:27:46.321Z,97046.03
2023-03-29T07:30:16.456Z,97046.34
2023-03-29T07:32:44.593Z,97044.94
2023-03-29T07:35:12.990Z,97062.22
2023-03-29T07:37:40.278Z,97058.75
2023-03-29T07:40:12.404Z,97063.31
2023-03-29T07:42:39.259Z,97060.00
2023-03-29T07:45:08.438Z,97055.13
2023-03-29T07:47:35.172Z,97056.91
2023-03-29T07:50:02.164Z,97048.47
2023-03-29T07:52:30.026Z,97059.16
2023-03-29T07:54:57.182Z,97054.09
2023-03-29T07:57:25.180Z,97057.97
2023-03-29T07:59:51.810Z,97059.88
2023-03-29T08:02:19.065Z,97059.19
2023-03-29T08:04:46.156Z,97050.25
2023-03-29T08:07:13.514Z,97051.41
2023-03-29T08:09:40.657Z,97050.78
2023-03-29T08:12:07.699Z,97051.22
2023-03-29T08:14:34.321Z,97052.13
2023-03-29T08:17:01.015Z,97047.19
2023-03-29T08:19:27.989Z,97050.94
2023-03-29T08:21:54.436Z,97045.00
2023-03-29T08:24:21.319Z,97046.09
2023-03-29T08:26:48.810Z,97047.44
2023-03-29T08:29:15.356Z,97053.47
2023-03-29T08:31:41.788Z,97045.41
2023-03-29T08:34:08.261Z,97036.41
2023-03-29T08:36:34.722Z,97045.16
2023-03-29T08:39:03.005Z,97045.34
2023-03-29T08:41:48.262Z,97039.06
2023-03-29T08:44:14.657Z,97045.16
2023-03-29T08:46:55.726Z,97041.97
2023-03-29T08:49:23.160Z,97043.81
2023-03-29T08:51:55.227Z,97038.28
2023-03-29T08:54:27.000Z,97038.78
2023-03-29T08:56:58.342Z,97042.28
2023-03-29T08:59:28.339Z,97035.06
2023-03-29T09:01:57.826Z,97033.56
2023-03-29T09:04:28.513Z,97034.97
2023-03-29T09:06:55.528Z,97026.03
2023-03-29T09:09:26.574Z,97030.63
2023-03-29T09:12:18.270Z,97038.00
2023-03-29T09:15:04.485Z,97032.66
2023-03-29T09:17:42.882Z,97030.63
2023-03-29T09:20:09.463Z,97043.97
2023-03-29T09:23:01.049Z,97029.09
2023-03-29T09:25:54.176Z,97029.19
2023-03-29T09:28:42.588Z,97026.81
2023-03-29T09:31:21.594Z,97028.78
2023-03-29T09:34:18.402Z,97017.81
2023-03-29T09:37:03.881Z,97015.38
2023-03-29T09:39:30.965Z,97017.72
2023-03-29T09:42:04.118Z,97013.75
2023-03-29T09:44:37.531Z,97015.81
2023-03-29T09:47:25.113Z,97010.94
2023-03-29T09:49:58.572Z,97005.28
2023-03-29T09:52:25.384Z,97007.28
2023-03-29T09:54:52.369Z,97006.91
2023-03-29T09:57:19.980Z,97011.28
2023-03-29T09:59:48.781Z,97003.25
2023-03-29T10:02:15.825Z,97011.06
2023-03-29T10:04:42.931Z,96999.31
2023-03-29T10:07:18.781Z,97002.13
2023-03-29T10:09:46.444Z,96995.53
2023-03-29T10:12:14.042Z,96994.25
2023-03-29T10:14:48.081Z,96990.38
2023-03-29T10:17:27.947Z,96992.94
2023-03-29T10:20:04.527Z,96988.06
2023-03-29T10:22:41.059Z,96983.75
2023-03-29T10:25:17.416Z,96984.59
2023-03-29T10:27:46.262Z,96983.97
2023-03-29T10:30:21.356Z,96987.31
2023-03-29T10:32:55.196Z,96989.63
2023-03-29T10:35:24.018Z,96976.94
2023-03-29T10:37:56.134Z,96973.59
2023-03-29T10:40:28.899Z,96976.44
2023-03-29T10:42:59.794Z,96983.50
2023-03-29T10:45:34.665Z,96981.94
2023-03-29T10:48:03.915Z,96972.41
2023-03-29T10:50:37.944Z,96977.63
2023-03-29T10:53:14.468Z,96971.19
2023-03-29T10:55:55.892Z,96970.75
2023-03-29T10:58:51.198Z,96970.16
2023-03-29T11:01:29.243Z,96971.81
2023-03-29T11:04:31.882Z,96966.84
2023-03-29T11:07:14.585Z,96969.59
2023-03-29T11:09:52.911Z,96961.91
2023-03-29T11:12:29.889Z,96960.19
2023-03-29T11:15:24.677Z,96956.78
2023-03-29T11:18:09.591Z,96958.47
2023-03-29T11:20:45.597Z,96953.44
2023-03-29T11:23:39.854Z,96952.44
2023-03-29T11:26:38.776Z,96941.41
2023-03-29T11:29:49.011Z,96942.19
2023-03-29T11:32:25.375Z,96948.94
2023-03-29T11:35:14.944Z,96944.69
2023-03-29T11:37:52.103Z,96939.63
2023-03-29T11:40:52.472Z,96949.00
2023-03-29T11:43:38.402Z,96944.03
2023-03-29T11:46:15.228Z,96945.00
2023-03-29T11:48:50.769Z,96946.69
2023-03-29T11:51:32.263Z,96947.44
2023-03-29T11:54:22.990Z,96941.59
2023-03-29T11:57:01.621Z,96944.09
2023-03-29T11:59:31.486Z,96939.84
2023-03-29T12:02:33.574Z,96946.84
2023-03-29T12:05:10.994Z,96938.09
2023-03-29T12:07:45.600Z,96938.06
2023-03-29T12:10:19.504Z,96937.09
2023-03-29T12:12:55.241Z,96938.91
2023-03-29T12:15:26.109Z,96931.06
2023-03-29T12:18:15.885Z,96927.50
2023-03-29T12:20:42.526Z,96925.56
2023-03-29T12:23:14.594Z,96927.88
2023-03-29T12:25:52.106Z,96930.44
2023-03-29T12:28:54.341Z,96926.88
2023-03-29T12:31:44.112Z,96920.13
2023-03-29T12:34:34.130Z,96925.22
2023-03-29T12:37:08.103Z,96930.34
2023-03-29T12:39:36.797Z,96924.34
2023-03-29T12:42:15.103Z,96932.13
2023-03-29T12:44:46.788Z,96933.78
2023-03-29T12:47:21.409Z,96926.91
2023-03-29T12:49:54.081Z,96927.63
2023-03-29T12:52:30.002Z,96921.78
2023-03-29T12:55:00.856Z,96927.81
2023-03-29T12:57:42.652Z,96925.22
2023-03-29T13:00:27.245Z,96925.31
2023-03-29T13:03:19.629Z,96917.72
2023-03-29T13:05:46.915Z,96918.56
2023-03-29T13:08:33.685Z,96919.44
2023-03-29T13:11:00.443Z,96916.81
2023-03-29T13:13:32.731Z,96904.88
2023-03-29T13:16:16.465Z,96908.31
2023-03-29T13:18:57.940Z,96909.28
2023-03-29T13:21:27.543Z,96911.16
2023-03-29T13:23:56.769Z,96912.00
2023-03-29T13:26:47.140Z,96898.41
2023-03-29T13:29:39.808Z,96896.00
2023-03-29T13:32:29.048Z,96894.41
2023-03-29T13:35:46.878Z,96892.00
2023-03-29T13:38:21.498Z,96894.66
2023-03-29T13:40:53.842Z,96881.88
2023-03-29T13:43:30.822Z,96879.41
2023-03-29T13:45:57.273Z,96872.72
2023-03-29T13:48:31.705Z,96879.47
2023-03-29T13:51:08.054Z,96878.66
2023-03-29T13:53:39.348Z,96861.56
2023-03-29T13:56:11.863Z,96877.84
2023-03-29T13:58:45.683Z,96876.16
2023-03-29T14:01:25.980Z,96878.84
2023-03-29T14:03:53.193Z,96868.72
2023-03-29T14:06:29.997Z,96861.31
2023-03-29T14:08:56.451Z,96859.63
2023-03-29T14:11:29.288Z,96864.72
2023-03-29T14:13:58.716Z,96849.50
2023-03-29T14:16:31.465Z,96861.38
2023-03-29T14:18:59.666Z,96851.13
2023-03-29T14:21:26.241Z,96853.69
2023-03-29T14:24:00.490Z,96857.91
2023-03-29T14:26:32.068Z,96858.75
2023-03-29T14:29:01.302Z,96860.41
2023-03-29T14:31:33.827Z,96859.44
2023-03-29T14:34:02.342Z,96858.53
2023-03-29T14:36:30.982Z,96856.00
2023-03-29T14:39:04.099Z,96858.56
2023-03-29T14:41:32.502Z,96860.25
2023-03-29T14:44:00.190Z,96854.28
2023-03-29T14:46:27.361Z,96858.53
2023-03-29T14:48:54.722Z,96861.97
2023-03-29T14:51:23.242Z,96860.25
2023-03-29T14:53:49.906Z,96853.41
2023-03-29T14:56:18.104Z,96855.09
2023-03-29T14:58:48.846Z,96843.19
2023-03-29T15:01:20.626Z,96843.22
2023-03-29T15:04:04.109Z,96846.63
2023-03-29T15:06:31.912Z,96844.88
2023-03-29T15:09:05.885Z,96840.66
2023-03-29T15:11:34.346Z,96847.50
2023-03-29T15:14:08.427Z,96848.44
2023-03-29T15:16:40.686Z,96836.53
2023-03-29T15:19:10.902Z,96847.56
2023-03-29T15:21:38.695Z,96841.53
2023-03-29T15:24:05.652Z,96837.28
2023-03-29T15:26:34.931Z,96828.78
2023-03-29T15:29:23.626Z,96822.81
2023-03-29T15:31:58.961Z,96815.97
2023-03-29T15:34:30.823Z,96817.63
2023-03-29T15:36:57.866Z,96811.75
2023-03-29T15:39:25.201Z,96809.22
2023-03-29T15:41:52.846Z,96806.75
2023-03-29T15:44:32.133Z,96799.16
2023-03-29T15:46:59.951Z,96800.84
2023-03-29T15:49:26.867Z,96803.38
2023-03-29T15:51:56.702Z,96805.13
2023-03-29T15:54:24.588Z,96798.28
2023-03-29T15:56:57.206Z,96795.72
2023-03-29T15:59:23.717Z,96799.19
2023-03-29T16:01:50.584Z,96792.34
2023-03-29T16:04:21.721Z,96797.41
2023-03-29T16:06:53.135Z,96792.22
2023-03-29T16:09:21.343Z,96782.78
2023-03-29T16:11:49.530Z,96789.59
2023-03-29T16:14:27.617Z,96787.88
2023-03-29T16:16:58.253Z,96786.19
2023-03-29T16:19:26.195Z,96783.59
2023-03-29T16:21:53.958Z,96785.31
2023-03-29T16:24:24.051Z,96780.09
2023-03-29T16:26:54.026Z,96782.63
2023-03-29T16:29:22.143Z,96780.78
2023-03-29T16:31:49.802Z,96794.41
2023-03-29T16:34:18.936Z,96785.03
2023-03-29T16:36:46.204Z,96785.81
2023-03-29T16:39:13.684Z,96783.22
2023-03-29T16:41:41.280Z,96792.56
2023-03-29T16:44:11.294Z,96790.75
2023-03-29T16:46:37.752Z,96791.63
2023-03-29T16:49:07.844Z,96786.47
2023-03-29T16:51:34.212Z,96777.91
2023-03-29T16:54:00.772Z,96772.78
2023-03-29T16:56:28.305Z,96771.91
2023-03-29T16:58:54.817Z,96769.19
2023-03-29T17:01:22.753Z,96777.81
2023-03-29T17:03:49.266Z,96775.94
2023-03-29T17:06:15.722Z,96777.59
2023-03-29T17:08:42.836Z,96771.53
2023-03-29T17:11:09.339Z,96765.53
2023-03-29T17:13:37.286Z,96773.16
2023-03-29T17:16:04.064Z,96770.53
2023-03-29T17:18:30.813Z,96772.16
2023-03-29T17:20:59.003Z,96771.22
2023-03-29T17:23:25.804Z,96775.47
2023-03-29T17:25:54.755Z,96777.06
2023-03-29T17:28:21.786Z,96781.25
2023-03-29T17:30:48.327Z,96782.91
2023-03-29T17:33:15.079Z,96778.47
2023-03-29T17:35:44.689Z,96775.13
2023-03-29T17:38:11.788Z,96778.38
2023-03-29T17:40:38.618Z,96774.94
2023-03-29T17:43:05.563Z,96774.84
2023-03-29T17:45:32.306Z,96776.50
2023-03-29T17:47:58.835Z,96780.78
2023-03-29T17:50:25.701Z,96779.88
2023-03-29T17:52:52.257Z,96774.72
2023-03-29T17:55:20.881Z,96776.22
2023-03-29T17:57:48.911Z,96781.34
2023-03-29T18:00:16.747Z,96782.06
2023-03-29T18:02:43.379Z,96790.50
2023-03-29T18:05:10.062Z,96794.66
2023-03-29T18:07:37.323Z,96795.44
2023-03-29T18:10:04.852Z,96798.84
2023-03-29T18:12:31.403Z,96798.81
2023-03-29T18:14:57.893Z,96798.78
2023-03-29T18:17:27.292Z,96796.16
2023-03-29T18:19:54.177Z,96796.13
2023-03-29T18:22:20.912Z,96800.28
2023-03-29T18:24:48.135Z,96792.59
2023-03-29T18:27:15.808Z,96795.16
2023-03-29T18:29:43.873Z,96797.75
2023-03-29T18:32:11.058Z,96798.63
2023-03-29T18:34:39.048Z,96797.78
2023-03-29T18:37:06.030Z,96796.84
2023-03-29T18:39:34.543Z,96803.78
2023-03-29T18:42:01.580Z,96796.13
2023-03-29T18:44:28.434Z,96789.22
2023-03-29T18:46:54.908Z,96797.81
2023-03-29T18:49:21.396Z,96802.84
2023-03-29T18:51:50.910Z,96797.69
2023-03-29T18:54:17.861Z,96806.22
2023-03-29T18:56:46.858Z,96812.06
2023-03-29T18:59:13.268Z,96812.16
2023-03-29T19:01:39.801Z,96815.50
2023-03-29T19:04:06.536Z,96810.47
2023-03-29T19:06:33.095Z,96812.00
2023-03-29T19:09:01.881Z,96801.69
2023-03-29T19:11:29.572Z,96800.81
2023-03-29T19:13:56.388Z,96802.44
2023-03-29T19:16:22.972Z,96806.78
2023-03-29T19:18:49.548Z,96799.06
2023-03-29T19:21:16.149Z,96793.09
2023-03-29T19:23:42.736Z,96795.66
2023-03-29T19:26:11.193Z,96807.63
2023-03-29T19:28:37.627Z,96811.94
2023-03-29T19:31:04.616Z,96811.72
2023-03-29T19:33:31.528Z,96815.97
2023-03-29T19:35:58.164Z,96803.28
2023-03-29T19:38:24.847Z,96800.56
2023-03-29T19:40:51.792Z,96810.94
2023-03-29T19:43:20.566Z,96803.19
2023-03-29T19:45:49.319Z,96787.88
2023-03-29T19:48:22.391Z,96788.66
2023-03-29T19:50:51.514Z,96783.50
2023-03-29T19:53:18.454Z,96780.03
2023-03-29T19:55:45.562Z,96780.09
2023-03-29T19:58:12.912Z,96770.03
2023-03-29T20:00:39.909Z,96771.78
2023-03-29T20:03:09.944Z,96767.59
2023-03-29T20:05:40.445Z,96765.88
2023-03-29T20:08:07.438Z,96762.38
2023-03-29T20:10:35.337Z,96763.25
2023-03-29T20:13:02.291Z,96754.59
2023-03-29T20:15:28.975Z,96753.66
2023-03-29T20:17:59.354Z,96751.16
2023-03-29T20:20:26.728Z,96749.34
2023-03-29T20:22:57.868Z,96732.31
2023-03-29T20:25:24.512Z,96744.38
2023-03-29T20:27:51.382Z,96748.69
2023-03-29T20:30:17.786Z,96746.91
2023-03-29T20:32:44.315Z,96759.66
2023-03-29T20:35:11.529Z,96753.63
2023-03-29T20:37:37.955Z,96753.81
2023-03-29T20:40:05.418Z,96753.69
2023-03-29T20:42:34.313Z,96748.53
2023-03-29T20:45:01.262Z,96749.31
2023-03-29T20:47:29.294Z,96745.13
2023-03-29T20:49:56.731Z,96739.09
2023-03-29T20:52:24.040Z,96736.53
2023-03-29T20:54:50.681Z,96742.50
2023-03-29T20:57:20.582Z,96736.63
2023-03-29T20:59:49.056Z,96743.41
2023-03-29T21:02:21.444Z,96743.31
2023-03-29T21:04:52.736Z,96732.28
2023-03-29T21:07:20.263Z,96739.09
2023-03-29T21:09:50.466Z,96743.22
2023-03-29T21:12:17.331Z,96743.22
2023-03-29T21:14:44.558Z,96744.94
2023-03-29T21:17:11.127Z,96744.94
2023-03-29T21:19:39.010Z,96739.09
2023-03-29T21:22:06.205Z,96736.47
2023-03-29T21:24:33.418Z,96744.00
2023-03-29T21:27:00.585Z,96744.88
2023-03-29T21:29:27.677Z,96727.75
2023-03-29T21:31:54.762Z,96736.22
2023-03-29T21:34:21.368Z,96744.78
2023-03-29T21:36:47.987Z,96750.69
2023-03-29T21:39:14.581Z,96737.88
2023-03-29T21:41:41.022Z,96709.75
2023-03-29T21:44:07.514Z,96708.00
2023-03-29T21:46:34.001Z,96715.75
2023-03-29T21:49:00.512Z,96714.84
2023-03-29T21:51:27.269Z,96706.38
2023-03-29T21:53:53.677Z,96701.31
2023-03-29T21:56:20.287Z,96699.66
2023-03-29T21:58:46.658Z,96691.94
2023-03-29T22:01:13.060Z,96688.59
2023-03-29T22:03:39.530Z,96679.94
2023-03-29T22:06:10.518Z,96678.22
2023-03-29T22:08:38.899Z,96691.00
2023-03-29T22:11:11.445Z,96691.03
2023-03-29T22:13:37.965Z,96680.81
2023-03-29T22:16:04.908Z,96669.72
2023-03-29T22:18:43.538Z,96664.56
2023-03-29T22:21:13.675Z,96672.16
2023-03-29T22:23:45.009Z,96675.50
2023-03-29T22:26:13.619Z,96668.72
2023-03-29T22:28:40.812Z,96667.97
2023-03-29T22:31:10.404Z,96660.25
2023-03-29T22:33:38.949Z,96665.34
2023-03-29T22:36:14.207Z,96662.78
2023-03-29T22:38:40.976Z,96657.63
2023-03-29T22:41:08.201Z,96661.03
2023-03-29T22:43:35.345Z,96656.81
2023-03-29T22:46:02.115Z,96668.56
2023-03-29T22:48:28.549Z,96658.38
2023-03-29T22:50:55.030Z,96669.44
2023-03-29T22:53:21.516Z,96656.75
2023-03-29T22:55:47.884Z,96660.16
2023-03-29T22:58:14.343Z,96657.50
2023-03-29T23:00:40.870Z,96649.06
2023-03-29T23:03:07.282Z,96644.72
2023-03-29T23:05:34.043Z,96641.31
2023-03-29T23:08:00.483Z,96637.13
2023-03-29T23:10:28.981Z,96625.19
2023-03-29T23:13:08.331Z,96611.44
2023-03-29T23:15:36.935Z,96625.88
2023-03-29T23:18:04.808Z,96627.59
2023-03-29T23:20:32.604Z,96630.16
2023-03-29T23:22:59.866Z,96628.38
2023-03-29T23:25:26.661Z,96626.53
2023-03-29T23:27:53.748Z,96631.63
2023-03-29T23:30:21.618Z,96628.22
2023-03-29T23:32:49.581Z,96625.81
2023-03-29T23:35:16.855Z,96618.13
2023-03-29T23:37:43.524Z,96619.81
2023-03-29T23:40:11.707Z,96618.06
2023-03-29T23:42:39.208Z,96622.25
2023-03-29T23:45:12.631Z,96616.47
2023-03-29T23:47:39.825Z,96617.16
2023-03-29T23:50:07.376Z,96609.50
2023-03-29T23:52:33.920Z,96613.66
2023-03-29T23:55:00.670Z,96614.47
2023-03-29T23:57:28.159Z,96614.59
2023-03-29T23:59:56.152Z,96617.94
